OSDI/DAM METAR and TAF weather

Enter ICAO airport designator
Station Type Date Time Source
OSDI METAR 2019/02/20 17:00 UTC NOAA

OSDI 201700Z 22004KT 9999 SCT030 10/04 Q1021


Station Type Date Time Source
OSDI Decoded METAR 2019/02/20 17:00 UTC NOAA

Damascus Int. Airport, Syria (OSDI) 33-25N 036-31E 609M
Feb 20, 2019 - 12:00 PM EST / 2019.02.20 1700 UTC
Wind: from the SW (220 degrees) at 5 MPH (4 KT):0
Visibility: greater than 7 mile(s):0
Sky conditions: partly cloudy
Temperature: 50 F (10 C)
Dew Point: 39 F (4 C)
Relative Humidity: 66%
Pressure (altimeter): 30.15 in. Hg (1021 hPa)
ob: OSDI 201700Z 22004KT 9999 SCT030 10/04 Q1021
cycle: 17

Station Type Date Time Source
OSDI TAF 2019/02/20 18:03 UTC NOAA

TAF
AMD OSDI 201700Z 2018/2124 22010KT 8000 FEW030 SCT100 PROB30
TEMPO 2100/2106 VRB03KT 2000 BR


Example: see airport list